Time;durP1;ratioP1;P1;durP2;ratioP2;P2;SDS_P1;SDS_P2;PMS_P1;PMS_P2;Temp;Humidity;BMP_temperature;BMP_pressure;BME280_temperature;BME280_humidity;BME280_pressure;Samples;Min_cycle;Max_cycle;Signal;HPM_P1;HPM_P2
2023/08/31 00:01:53;;;;;;;13.60;12.27;;;13.60;92.20;;;;;;5097862;28;20229;-90
2023/08/31 00:04:18;;;;;;;15.53;13.93;;;13.60;92.20;;;;;;5098645;28;20170;-90
2023/08/31 00:06:46;;;;;;;14.20;12.67;;;13.50;92.30;;;;;;5097984;28;20205;-91
2023/08/31 00:09:12;;;;;;;16.90;12.50;;;13.60;92.30;;;;;;5098159;28;20195;-90
2023/08/31 00:11:37;;;;;;;15.70;14.00;;;13.50;92.20;;;;;;5096851;28;20178;-90
2023/08/31 00:14:04;;;;;;;13.50;12.13;;;13.50;92.30;;;;;;5096225;28;20175;-90
2023/08/31 00:16:29;;;;;;;14.43;12.93;;;13.40;92.20;;;;;;5098183;28;20260;-90
2023/08/31 00:18:56;;;;;;;15.07;13.43;;;13.40;92.30;;;;;;5098201;28;20178;-89
2023/08/31 00:21:22;;;;;;;14.93;13.43;;;13.30;92.30;;;;;;5098591;28;20174;-89
2023/08/31 00:23:48;;;;;;;14.67;12.90;;;13.40;92.40;;;;;;5097575;28;20270;-89
2023/08/31 00:26:14;;;;;;;13.77;12.37;;;13.30;92.30;;;;;;5097020;28;20566;-89
2023/08/31 00:28:42;;;;;;;13.60;12.20;;;13.30;92.40;;;;;;5097581;28;20175;-88
2023/08/31 00:31:08;;;;;;;14.63;13.23;;;13.20;92.50;;;;;;5097797;28;20202;-88
2023/08/31 00:33:33;;;;;;;18.83;12.73;;;13.20;92.50;;;;;;5098760;28;20186;-88
2023/08/31 00:36:03;;;;;;;14.03;12.53;;;13.20;92.60;;;;;;5097435;28;20206;-89
2023/08/31 00:38:29;;;;;;;14.70;12.70;;;13.10;92.70;;;;;;5100667;28;20235;-90
2023/08/31 00:40:55;;;;;;;13.43;12.17;;;13.00;92.80;;;;;;5100863;28;20174;-89
2023/08/31 00:43:21;;;;;;;13.03;11.47;;;13.00;93.00;;;;;;5097832;28;20174;-90
2023/08/31 00:45:48;;;;;;;18.10;13.40;;;13.00;93.00;;;;;;5096840;28;20205;-89
2023/08/31 00:48:19;;;;;;;14.10;12.63;;;13.00;93.00;;;;;;5098652;28;20202;-90
2023/08/31 00:50:45;;;;;;;14.07;12.07;;;12.90;92.80;;;;;;5095362;28;20250;-88
2023/08/31 00:53:11;;;;;;;15.93;13.47;;;13.00;93.00;;;;;;5096591;28;20178;-90
2023/08/31 00:55:39;;;;;;;17.67;13.10;;;13.00;93.00;;;;;;5096675;28;20277;-90
2023/08/31 00:58:05;;;;;;;13.23;11.83;;;13.00;92.90;;;;;;5096496;28;20152;-90
2023/08/31 01:00:54;;;;;;;13.37;11.93;;;12.90;92.90;;;;;;5097035;28;20186;-90
2023/08/31 01:03:29;;;;;;;15.87;11.47;;;12.80;93.00;;;;;;5092555;28;20252;-87
2023/08/31 01:06:12;;;;;;;15.33;11.63;;;12.80;93.00;;;;;;5095401;28;20205;-88
2023/08/31 01:08:49;;;;;;;14.57;11.57;;;12.80;93.00;;;;;;5095164;28;20683;-88
2023/08/31 01:11:31;;;;;;;12.93;11.20;;;12.70;93.10;;;;;;5095702;28;20583;-88
2023/08/31 01:14:14;;;;;;;12.83;11.53;;;12.70;93.10;;;;;;5095413;28;20177;-88
2023/08/31 01:16:43;;;;;;;13.57;12.20;;;12.70;93.10;;;;;;5095410;28;20194;-87
2023/08/31 01:19:36;;;;;;;12.23;11.03;;;12.60;93.20;;;;;;5096434;28;20626;-88
2023/08/31 01:22:07;;;;;;;14.77;11.97;;;12.60;93.20;;;;;;5094726;28;20220;-88
2023/08/31 01:24:35;;;;;;;15.37;11.00;;;12.70;93.10;;;;;;5095743;28;20182;-87
2023/08/31 01:27:00;;;;;;;14.40;11.53;;;12.60;93.00;;;;;;5094466;28;20539;-87
2023/08/31 01:29:26;;;;;;;12.63;11.30;;;12.60;93.10;;;;;;5094438;28;20217;-88
2023/08/31 01:31:52;;;;;;;15.87;12.37;;;12.60;93.10;;;;;;5095441;28;20178;-88
2023/08/31 01:34:17;;;;;;;15.30;11.20;;;12.60;93.00;;;;;;5095299;28;20179;-88
2023/08/31 01:36:52;;;;;;;12.63;11.37;;;12.60;93.00;;;;;;5094946;28;20201;-88
2023/08/31 01:39:35;;;;;;;12.03;10.93;;;12.50;93.10;;;;;;5095965;28;20158;-88
2023/08/31 01:42:04;;;;;;;13.10;10.90;;;12.50;93.00;;;;;;5096173;28;20208;-88
2023/08/31 01:44:32;;;;;;;19.13;11.50;;;12.50;93.00;;;;;;5094233;28;20174;-87
2023/08/31 01:47:06;;;;;;;14.87;11.33;;;12.40;92.90;;;;;;5094798;28;20182;-88
2023/08/31 01:49:41;;;;;;;17.00;11.10;;;12.50;93.00;;;;;;5096713;28;20194;-88
2023/08/31 01:52:07;;;;;;;11.50;10.50;;;12.40;93.00;;;;;;5096063;28;20162;-88
2023/08/31 01:54:37;;;;;;;16.63;11.13;;;12.30;93.20;;;;;;5094966;28;20243;-87
2023/08/31 01:57:03;;;;;;;13.73;11.30;;;12.30;93.30;;;;;;5094818;28;20217;-88
2023/08/31 01:59:28;;;;;;;15.13;10.37;;;12.30;93.20;;;;;;5095716;28;20197;-88
2023/08/31 02:01:54;;;;;;;16.27;14.67;;;12.30;93.30;;;;;;5095575;28;20650;-88
2023/08/31 02:04:20;;;;;;;17.13;15.37;;;12.30;93.30;;;;;;5096691;28;20182;-88
2023/08/31 02:06:45;;;;;;;17.57;16.03;;;12.20;93.20;;;;;;5095117;28;20670;-88
2023/08/31 02:09:13;;;;;;;16.57;10.33;;;12.20;93.30;;;;;;5095123;28;20265;-88
2023/08/31 02:11:39;;;;;;;12.53;9.87;;;12.20;93.30;;;;;;5095713;28;20231;-88
2023/08/31 02:14:05;;;;;;;15.30;13.77;;;12.20;93.30;;;;;;5096100;28;20170;-88
2023/08/31 02:16:31;;;;;;;16.70;14.30;;;12.10;93.30;;;;;;5095582;28;20270;-88
2023/08/31 02:18:57;;;;;;;11.73;10.53;;;12.20;93.30;;;;;;5096199;28;20555;-88
2023/08/31 02:21:22;;;;;;;11.13;9.97;;;12.10;93.30;;;;;;5094426;28;20179;-88
2023/08/31 02:23:48;;;;;;;13.10;10.47;;;12.10;93.30;;;;;;5096589;28;20662;-88
2023/08/31 02:26:14;;;;;;;12.13;10.23;;;12.10;93.30;;;;;;5094218;28;20198;-88
2023/08/31 02:28:39;;;;;;;12.77;10.00;;;12.20;93.30;;;;;;5094387;28;20174;-88
2023/08/31 02:31:05;;;;;;;10.70;9.67;;;12.10;93.20;;;;;;5095566;28;20194;-88
2023/08/31 02:33:31;;;;;;;10.70;9.07;;;12.20;93.10;;;;;;5094411;28;20591;-88
2023/08/31 02:35:56;;;;;;;11.93;10.17;;;12.10;93.00;;;;;;5094471;28;20190;-88
2023/08/31 02:38:22;;;;;;;15.70;9.20;;;12.10;92.90;;;;;;5094114;28;20258;-88
2023/08/31 02:40:49;;;;;;;12.47;9.57;;;12.10;92.90;;;;;;5094121;28;20187;-88
2023/08/31 02:43:14;;;;;;;11.60;9.10;;;12.10;92.90;;;;;;5093928;28;20220;-88
2023/08/31 02:45:40;;;;;;;11.20;9.50;;;12.10;92.90;;;;;;5094420;28;20198;-88
2023/08/31 02:48:09;;;;;;;11.13;8.37;;;12.10;92.80;;;;;;5095333;28;20262;-88
2023/08/31 02:50:35;;;;;;;11.57;8.70;;;12.10;92.80;;;;;;5093606;28;20202;-87
2023/08/31 02:53:01;;;;;;;10.70;9.13;;;12.00;92.70;;;;;;5093745;28;20179;-88
2023/08/31 02:55:26;;;;;;;12.33;9.40;;;12.00;92.70;;;;;;5094519;28;20210;-88
2023/08/31 02:57:52;;;;;;;12.77;8.70;;;12.10;92.60;;;;;;5095674;28;20170;-88
2023/08/31 03:00:21;;;;;;;10.60;9.60;;;12.00;92.70;;;;;;5093798;28;20182;-88
2023/08/31 03:02:47;;;;;;;10.27;9.27;;;12.00;92.70;;;;;;5094417;28;20186;-88
2023/08/31 03:05:13;;;;;;;11.53;8.50;;;12.00;92.60;;;;;;5094098;28;20198;-88
2023/08/31 03:07:38;;;;;;;10.80;8.47;;;12.00;92.60;;;;;;5094536;28;20183;-88
2023/08/31 03:10:04;;;;;;;8.63;7.80;;;11.90;92.60;;;;;;5093831;28;20202;-88
2023/08/31 03:12:30;;;;;;;8.50;7.77;;;11.90;92.40;;;;;;5093519;28;20542;-88
2023/08/31 03:14:56;;;;;;;8.23;7.47;;;12.00;92.40;;;;;;5095545;28;20199;-88
2023/08/31 03:17:21;;;;;;;10.30;8.60;;;12.00;92.30;;;;;;5099365;28;20696;-88
2023/08/31 03:19:47;;;;;;;10.27;8.40;;;12.00;92.20;;;;;;5098506;28;20642;-88
2023/08/31 03:22:12;;;;;;;11.10;7.60;;;12.00;92.20;;;;;;5098045;28;20175;-88
2023/08/31 03:24:38;;;;;;;14.70;8.23;;;12.00;92.20;;;;;;5099061;28;20199;-88
2023/08/31 03:27:03;;;;;;;8.77;7.80;;;12.00;92.10;;;;;;5098021;28;20189;-88
2023/08/31 03:29:30;;;;;;;8.60;7.80;;;12.00;92.10;;;;;;5097317;28;20230;-88
2023/08/31 03:31:56;;;;;;;8.70;7.87;;;12.00;92.10;;;;;;5097288;28;20171;-88
2023/08/31 03:34:22;;;;;;;8.97;8.03;;;11.90;92.20;;;;;;5099402;28;20178;-88
2023/08/31 03:36:47;;;;;;;9.53;8.50;;;11.90;92.10;;;;;;5097928;28;20195;-88
2023/08/31 03:39:13;;;;;;;12.30;8.20;;;11.90;92.10;;;;;;5097886;28;20178;-88
2023/08/31 03:41:38;;;;;;;12.13;8.60;;;11.90;92.20;;;;;;5097180;28;20182;-87
2023/08/31 03:44:04;;;;;;;10.50;8.57;;;11.90;92.30;;;;;;5096786;28;20232;-88
2023/08/31 03:46:29;;;;;;;10.60;8.40;;;11.80;92.10;;;;;;5097424;28;20198;-88
2023/08/31 03:48:55;;;;;;;14.60;8.07;;;11.80;92.10;;;;;;5097922;28;20258;-88
2023/08/31 03:51:20;;;;;;;8.70;7.80;;;11.80;92.00;;;;;;5097824;28;20175;-88
2023/08/31 03:53:46;;;;;;;12.40;8.07;;;11.70;92.00;;;;;;5097404;28;20242;-88
2023/08/31 03:56:12;;;;;;;16.43;10.63;;;11.70;92.10;;;;;;5096724;28;20206;-88
2023/08/31 03:58:37;;;;;;;11.50;7.87;;;11.70;92.10;;;;;;5098497;28;20199;-87
2023/08/31 04:01:05;;;;;;;9.30;7.13;;;11.70;92.10;;;;;;5096662;28;20267;-88
2023/08/31 04:03:30;;;;;;;12.60;7.97;;;11.70;92.20;;;;;;5098425;28;20661;-88
2023/08/31 04:05:56;;;;;;;10.47;8.67;;;11.60;92.20;;;;;;5097974;28;20191;-88
2023/08/31 04:08:22;;;;;;;8.70;7.80;;;11.60;92.20;;;;;;5097365;28;20582;-88
2023/08/31 04:10:47;;;;;;;11.00;7.67;;;11.70;92.20;;;;;;5097659;28;20243;-88
2023/08/31 04:13:13;;;;;;;8.00;7.23;;;11.70;92.20;;;;;;5097774;28;20236;-88
2023/08/31 04:15:38;;;;;;;9.63;6.23;;;11.70;92.10;;;;;;5097854;28;20195;-88
2023/08/31 04:18:04;;;;;;;11.40;10.37;;;11.60;92.10;;;;;;5097916;28;20530;-88
2023/08/31 04:20:30;;;;;;;12.57;10.07;;;11.60;92.20;;;;;;5096707;28;20190;-88
2023/08/31 04:22:56;;;;;;;14.90;10.27;;;11.60;92.20;;;;;;5096607;28;20182;-87
2023/08/31 04:25:21;;;;;;;7.90;7.07;;;11.60;92.30;;;;;;5095926;28;20815;-87
2023/08/31 04:27:47;;;;;;;8.73;7.33;;;11.70;92.30;;;;;;5096866;28;20178;-88
2023/08/31 04:30:12;;;;;;;9.70;6.83;;;11.60;92.10;;;;;;5098356;28;20202;-88
2023/08/31 04:32:38;;;;;;;12.80;10.97;;;11.60;92.10;;;;;;5096823;28;20171;-88
2023/08/31 04:35:07;;;;;;;12.67;11.50;;;11.60;92.20;;;;;;5096490;28;20190;-88
2023/08/31 04:37:33;;;;;;;11.27;6.87;;;11.60;92.30;;;;;;5096140;28;20175;-87
2023/08/31 04:39:58;;;;;;;11.23;7.50;;;11.60;92.30;;;;;;5096596;28;20208;-88
2023/08/31 04:42:24;;;;;;;7.90;7.07;;;11.50;92.20;;;;;;5095932;28;20182;-87
2023/08/31 04:44:50;;;;;;;11.83;10.63;;;11.50;92.20;;;;;;5096728;28;20194;-87
2023/08/31 04:47:15;;;;;;;12.67;11.30;;;11.50;92.00;;;;;;5096925;28;20663;-89
2023/08/31 04:49:41;;;;;;;11.83;9.87;;;11.50;92.00;;;;;;5097597;28;20202;-89
2023/08/31 04:52:07;;;;;;;9.93;7.73;;;11.50;92.00;;;;;;5096408;28;20557;-87
2023/08/31 04:54:32;;;;;;;15.17;11.17;;;11.50;92.00;;;;;;5095916;28;20274;-87
2023/08/31 04:56:58;;;;;;;12.87;10.77;;;11.50;92.10;;;;;;5095025;28;20553;-88
2023/08/31 04:59:23;;;;;;;13.60;12.23;;;11.50;92.10;;;;;;5098032;28;20214;-89
2023/08/31 05:01:49;;;;;;;11.33;8.30;;;11.50;92.00;;;;;;5094605;28;20185;-86
2023/08/31 05:04:14;;;;;;;10.57;8.77;;;11.50;92.00;;;;;;5093878;28;20182;-87
2023/08/31 05:06:40;;;;;;;10.00;7.57;;;11.60;91.90;;;;;;5093697;28;20199;-87
2023/08/31 05:09:06;;;;;;;13.93;8.27;;;11.60;91.80;;;;;;5093720;28;20275;-87
2023/08/31 05:11:31;;;;;;;11.37;8.53;;;11.60;91.80;;;;;;5094398;28;20209;-87
2023/08/31 05:13:57;;;;;;;8.90;8.00;;;11.60;91.80;;;;;;5095233;28;20193;-87
2023/08/31 05:16:22;;;;;;;15.73;9.00;;;11.60;91.80;;;;;;5095715;28;20617;-88
2023/08/31 05:18:49;;;;;;;8.20;7.50;;;11.60;91.90;;;;;;5095231;28;20174;-87
2023/08/31 05:21:15;;;;;;;9.97;7.67;;;11.60;92.00;;;;;;5093444;28;20194;-86
2023/08/31 05:23:40;;;;;;;11.70;8.37;;;11.50;92.10;;;;;;5094667;28;20540;-87
2023/08/31 05:26:06;;;;;;;13.77;8.90;;;11.50;92.20;;;;;;5093263;28;20182;-87
2023/08/31 05:28:32;;;;;;;13.20;8.90;;;11.50;92.20;;;;;;5094752;28;20167;-86
2023/08/31 05:31:00;;;;;;;12.63;8.47;;;11.60;92.20;;;;;;5093183;28;20224;-86
2023/08/31 05:33:27;;;;;;;9.40;8.53;;;11.50;92.20;;;;;;5093062;28;20312;-86
2023/08/31 05:35:52;;;;;;;11.53;9.13;;;11.50;92.30;;;;;;5094575;28;20661;-86
2023/08/31 05:38:18;;;;;;;13.03;7.97;;;11.50;92.10;;;;;;5093658;28;20260;-87
2023/08/31 05:40:46;;;;;;;9.33;8.40;;;11.60;92.10;;;;;;5093026;28;20638;-86
2023/08/31 05:43:12;;;;;;;10.50;8.70;;;11.60;92.10;;;;;;5092978;28;20175;-86
2023/08/31 05:45:38;;;;;;;10.07;7.87;;;11.60;92.10;;;;;;5094221;28;20578;-86
2023/08/31 05:48:03;;;;;;;9.17;8.30;;;11.60;92.10;;;;;;5094260;28;20170;-86
2023/08/31 05:50:30;;;;;;;11.33;9.10;;;11.60;92.20;;;;;;5093152;28;20198;-87
2023/08/31 05:52:55;;;;;;;10.97;8.90;;;11.60;92.10;;;;;;5094299;28;20539;-87
2023/08/31 05:55:21;;;;;;;13.17;8.93;;;11.60;92.00;;;;;;5092697;28;20206;-86
2023/08/31 05:57:47;;;;;;;11.70;8.53;;;11.70;92.10;;;;;;5094104;28;20163;-86
2023/08/31 06:00:12;;;;;;;11.83;8.60;;;11.70;91.90;;;;;;5094368;28;20234;-86
2023/08/31 06:02:38;;;;;;;11.70;8.80;;;11.70;91.60;;;;;;5094905;28;20166;-85
2023/08/31 06:05:05;;;;;;;12.03;8.30;;;11.70;91.60;;;;;;5094623;28;20286;-86
2023/08/31 06:07:31;;;;;;;10.07;8.17;;;11.80;91.60;;;;;;5092917;28;20175;-86
2023/08/31 06:09:57;;;;;;;13.53;8.63;;;11.80;91.50;;;;;;5094631;28;20203;-89
2023/08/31 06:12:22;;;;;;;9.17;8.23;;;11.90;91.40;;;;;;5096337;28;20224;-89
2023/08/31 06:14:48;;;;;;;9.23;8.33;;;11.90;91.30;;;;;;5099156;28;20191;-89
2023/08/31 06:17:14;;;;;;;9.13;8.10;;;12.00;91.40;;;;;;5098248;28;20171;-89
2023/08/31 06:19:41;;;;;;;12.10;8.30;;;12.10;91.10;;;;;;5099408;28;20258;-89
2023/08/31 06:22:06;;;;;;;14.97;8.83;;;12.10;90.80;;;;;;5099445;28;20178;-89
2023/08/31 06:24:32;;;;;;;10.73;8.13;;;12.20;90.80;;;;;;5099519;28;20171;-89
2023/08/31 06:26:58;;;;;;;9.50;8.47;;;12.20;90.70;;;;;;5098473;28;20179;-90
2023/08/31 06:29:24;;;;;;;9.27;8.07;;;12.30;90.20;;;;;;5098172;28;20210;-89
2023/08/31 06:31:49;;;;;;;8.70;7.90;;;12.40;90.30;;;;;;5098663;28;20232;-88
2023/08/31 06:34:15;;;;;;;10.10;8.20;;;12.30;89.70;;;;;;5097677;28;20181;-89
2023/08/31 06:36:40;;;;;;;9.40;8.60;;;12.50;89.70;;;;;;5098651;28;20190;-89
2023/08/31 06:39:06;;;;;;;13.60;12.37;;;12.40;89.40;;;;;;5097450;28;20190;-89
2023/08/31 06:41:32;;;;;;;12.57;11.50;;;12.40;89.30;;;;;;5096569;28;20175;-89
2023/08/31 06:43:58;;;;;;;13.10;12.10;;;12.40;89.00;;;;;;5096561;28;20220;-89
2023/08/31 06:46:23;;;;;;;14.07;12.60;;;12.50;88.90;;;;;;5098037;28;20198;-89
2023/08/31 06:48:49;;;;;;;14.10;12.73;;;12.60;89.00;;;;;;5096478;28;20193;-89
2023/08/31 06:51:15;;;;;;;15.27;12.97;;;12.70;89.00;;;;;;5095787;28;20177;-89
2023/08/31 06:53:43;;;;;;;14.20;12.83;;;12.70;88.60;;;;;;5098260;28;20554;-89
2023/08/31 06:56:08;;;;;;;13.40;12.23;;;12.70;88.30;;;;;;5098810;28;20202;-89
2023/08/31 06:58:34;;;;;;;14.20;13.10;;;12.80;88.30;;;;;;5097576;28;20269;-89
2023/08/31 07:00:59;;;;;;;14.10;12.87;;;12.90;87.90;;;;;;5097249;28;20203;-89
2023/08/31 07:03:25;;;;;;;14.90;13.30;;;12.90;87.70;;;;;;5098511;28;20175;-89
2023/08/31 07:05:50;;;;;;;19.37;17.37;;;13.00;87.60;;;;;;5097396;28;20233;-89
2023/08/31 07:08:16;;;;;;;12.03;8.90;;;13.00;87.50;;;;;;5098057;28;20197;-89
2023/08/31 07:10:41;;;;;;;9.87;9.07;;;13.10;87.30;;;;;;5097958;28;20208;-89
2023/08/31 07:13:07;;;;;;;15.73;14.17;;;13.10;86.90;;;;;;5099102;28;20190;-89
2023/08/31 07:15:33;;;;;;;16.37;15.00;;;13.20;87.30;;;;;;5099529;28;20654;-89
2023/08/31 07:17:59;;;;;;;18.23;16.43;;;13.30;87.10;;;;;;5098971;28;20568;-89
2023/08/31 07:20:25;;;;;;;12.40;9.57;;;13.30;87.20;;;;;;5099048;28;20227;-89
2023/08/31 07:22:51;;;;;;;10.90;9.90;;;13.40;86.70;;;;;;5097010;28;20183;-89
2023/08/31 07:25:16;;;;;;;17.60;16.10;;;13.40;86.60;;;;;;5097052;28;20225;-89
2023/08/31 07:27:42;;;;;;;17.63;16.00;;;13.50;86.20;;;;;;5097003;28;20553;-89
2023/08/31 07:30:08;;;;;;;19.67;18.27;;;13.50;86.40;;;;;;5098453;28;20209;-89
2023/08/31 07:32:33;;;;;;;11.50;9.80;;;13.50;86.00;;;;;;5098676;28;20183;-89
2023/08/31 07:34:59;;;;;;;10.47;9.57;;;13.60;86.20;;;;;;5096931;28;20674;-89
2023/08/31 07:37:24;;;;;;;11.63;10.50;;;13.70;86.00;;;;;;5098198;28;20202;-89
2023/08/31 07:39:50;;;;;;;11.60;10.23;;;13.70;86.00;;;;;;5098072;28;20224;-89
2023/08/31 07:42:16;;;;;;;11.30;10.40;;;13.70;85.80;;;;;;5097451;28;20175;-89
2023/08/31 07:44:43;;;;;;;12.03;10.70;;;13.70;85.50;;;;;;5098394;28;20174;-89
2023/08/31 07:47:09;;;;;;;11.67;10.43;;;13.80;85.80;;;;;;5098612;28;20182;-89
2023/08/31 07:49:35;;;;;;;14.13;11.03;;;13.80;85.40;;;;;;5097851;28;20202;-89
2023/08/31 07:52:00;;;;;;;12.13;10.90;;;13.70;85.00;;;;;;5097960;28;20639;-89
2023/08/31 07:54:26;;;;;;;11.50;10.50;;;13.80;85.60;;;;;;5097234;28;20664;-88
2023/08/31 07:56:51;;;;;;;10.27;9.27;;;14.00;85.90;;;;;;5098577;28;20194;-89
2023/08/31 07:59:18;;;;;;;11.73;10.53;;;14.10;85.50;;;;;;5098340;28;20175;-89
2023/08/31 08:01:43;;;;;;;10.77;9.70;;;14.00;84.90;;;;;;5100589;28;20183;-89
2023/08/31 08:04:13;;;;;;;10.27;9.40;;;14.10;85.60;;;;;;5101769;28;20649;-89
2023/08/31 08:06:38;;;;;;;10.03;9.20;;;14.00;85.10;;;;;;5101946;28;20281;-89
2023/08/31 08:09:04;;;;;;;12.57;11.30;;;13.90;85.00;;;;;;5101039;28;20271;-89
2023/08/31 08:11:30;;;;;;;10.60;9.70;;;14.10;86.30;;;;;;5101899;28;20175;-89
2023/08/31 08:13:55;;;;;;;9.87;8.97;;;14.10;85.20;;;;;;5100658;28;20261;-89
2023/08/31 08:16:21;;;;;;;9.73;9.00;;;14.20;85.30;;;;;;5101601;28;20193;-89
2023/08/31 08:18:47;;;;;;;10.10;9.20;;;14.20;85.20;;;;;;5077300;22;20260;-92
2023/08/31 08:21:12;;;;;;;10.70;9.60;;;14.20;85.10;;;;;;4995236;28;20297;-91
2023/08/31 08:23:38;;;;;;;11.27;9.37;;;14.20;85.30;;;;;;4995352;28;20182;-91
2023/08/31 08:26:03;;;;;;;10.33;9.30;;;14.40;85.70;;;;;;4995112;28;20578;-92
2023/08/31 08:28:29;;;;;;;9.43;8.30;;;14.30;84.90;;;;;;4995052;28;20226;-92
2023/08/31 08:30:54;;;;;;;11.00;10.00;;;14.50;85.50;;;;;;4995104;28;20212;-89
2023/08/31 08:33:20;;;;;;;12.57;10.13;;;14.60;84.70;;;;;;4995805;28;20252;-90
2023/08/31 08:35:46;;;;;;;12.87;10.03;;;14.50;84.40;;;;;;4996137;28;20170;-90
2023/08/31 08:38:11;;;;;;;11.83;10.60;;;14.30;84.40;;;;;;4995285;28;20198;-90
2023/08/31 08:40:37;;;;;;;11.10;10.20;;;14.20;84.80;;;;;;4994931;28;20561;-90
2023/08/31 08:43:07;;;;;;;11.40;10.53;;;14.10;84.80;;;;;;4994829;28;20692;-90
2023/08/31 08:45:38;;;;;;;14.27;11.23;;;14.00;85.00;;;;;;4995166;28;20657;-90
2023/08/31 08:48:06;;;;;;;11.77;10.27;;;14.00;84.80;;;;;;4994691;28;20205;-90
2023/08/31 08:50:33;;;;;;;11.73;10.70;;;14.00;85.00;;;;;;4994641;28;20201;-90
2023/08/31 08:53:00;;;;;;;12.97;11.47;;;14.20;85.80;;;;;;4994669;28;20650;-90
2023/08/31 08:55:25;;;;;;;11.13;10.13;;;14.50;85.10;;;;;;4994665;28;20201;-90
2023/08/31 08:57:51;;;;;;;11.13;10.07;;;14.80;84.80;;;;;;4995428;28;20212;-90
2023/08/31 09:00:16;;;;;;;11.20;10.30;;;14.70;83.90;;;;;;4995059;28;20178;-90
2023/08/31 09:02:42;;;;;;;11.53;10.37;;;14.50;83.60;;;;;;4994442;28;20611;-90
2023/08/31 09:05:08;;;;;;;11.53;10.40;;;14.50;83.50;;;;;;4994551;28;20185;-90
2023/08/31 09:07:37;;;;;;;10.97;10.07;;;14.40;83.90;;;;;;4995246;28;20174;-90
2023/08/31 09:10:04;;;;;;;11.03;10.10;;;14.40;83.90;;;;;;4995072;28;20549;-90
2023/08/31 09:12:30;;;;;;;11.83;10.83;;;14.70;83.90;;;;;;4993506;28;20173;-90
2023/08/31 09:14:59;;;;;;;11.80;10.70;;;14.60;82.40;;;;;;4994853;28;20217;-91
2023/08/31 09:17:26;;;;;;;11.63;10.57;;;14.30;82.40;;;;;;4995523;28;20535;-90
2023/08/31 09:20:04;;;;;;;11.27;10.27;;;14.20;82.40;;;;;;4994212;28;20264;-90
2023/08/31 09:22:29;;;;;;;11.27;10.20;;;14.40;83.20;;;;;;4994359;28;20754;-90
2023/08/31 09:24:55;;;;;;;12.10;10.75;;;14.80;82.90;;;;;;4994062;28;20216;-90
2023/08/31 09:27:22;;;;;;;10.83;9.93;;;14.60;81.90;;;;;;4994124;28;20182;-90
2023/08/31 09:29:48;;;;;;;11.27;10.35;;;14.60;82.40;;;;;;4993786;28;20222;-90
2023/08/31 09:32:17;;;;;;;12.57;11.50;;;14.50;82.50;;;;;;4995026;28;20576;-90
2023/08/31 09:34:43;;;;;;;11.50;10.70;;;14.40;81.90;;;;;;4993775;28;20170;-90
2023/08/31 09:37:09;;;;;;;12.00;10.67;;;14.40;81.60;;;;;;4994910;28;20166;-90
2023/08/31 09:39:39;;;;;;;12.73;11.63;;;14.80;81.60;;;;;;4993657;28;20277;-90
2023/08/31 09:42:05;;;;;;;12.75;11.65;;;15.00;80.30;;;;;;4995214;28;20178;-90
2023/08/31 09:44:30;;;;;;;13.87;12.60;;;14.90;80.70;;;;;;4993619;28;20229;-90
2023/08/31 09:46:57;;;;;;;12.65;11.57;;;14.90;80.50;;;;;;4993603;28;20597;-90
2023/08/31 09:49:24;;;;;;;12.57;11.68;;;15.20;79.80;;;;;;4995573;28;20241;-91
2023/08/31 09:51:50;;;;;;;13.55;12.55;;;15.10;80.20;;;;;;4994086;28;20596;-91
2023/08/31 09:54:22;;;;;;;11.55;10.65;;;15.20;80.00;;;;;;4995431;28;20175;-90
2023/08/31 09:56:48;;;;;;;14.05;12.80;;;15.50;79.80;;;;;;4994741;28;20205;-90
2023/08/31 09:59:16;;;;;;;12.52;11.40;;;15.70;78.90;;;;;;4994634;28;20190;-91
2023/08/31 10:01:44;;;;;;;13.02;11.82;;;16.00;78.80;;;;;;4993358;28;20657;-90
2023/08/31 10:04:10;;;;;;;13.73;12.63;;;16.20;78.30;;;;;;4993314;28;20186;-91
2023/08/31 10:06:40;;;;;;;14.00;12.90;;;16.40;78.20;;;;;;4993308;28;20182;-90
2023/08/31 10:09:06;;;;;;;15.25;14.02;;;16.70;77.50;;;;;;4993068;28;20673;-90
2023/08/31 10:11:33;;;;;;;15.32;14.32;;;16.30;76.00;;;;;;4993230;28;20185;-90
2023/08/31 10:13:59;;;;;;;15.95;14.45;;;15.90;76.70;;;;;;4994588;28;20245;-90
2023/08/31 10:16:28;;;;;;;16.88;15.32;;;15.90;77.20;;;;;;4993071;28;20194;-90
2023/08/31 10:18:58;;;;;;;15.20;13.90;;;15.90;77.30;;;;;;4993105;28;20209;-90
2023/08/31 10:21:23;;;;;;;14.70;13.60;;;16.40;77.60;;;;;;4993076;28;20166;-90
2023/08/31 10:23:50;;;;;;;15.13;14.07;;;16.50;76.50;;;;;;4992619;28;20704;-90
2023/08/31 10:26:27;;;;;;;15.00;13.80;;;16.70;77.60;;;;;;4992981;28;20174;-90
2023/08/31 10:28:53;;;;;;;14.63;13.43;;;16.80;77.10;;;;;;4993952;28;20189;-90
2023/08/31 10:31:22;;;;;;;15.88;14.68;;;16.70;77.90;;;;;;4992956;28;20185;-91
2023/08/31 10:34:05;;;;;;;16.52;15.27;;;17.00;75.70;;;;;;4993194;28;20174;-90
2023/08/31 10:36:39;;;;;;;15.65;14.25;;;17.00;75.90;;;;;;4993860;28;20257;-91
2023/08/31 10:39:26;;;;;;;15.80;14.60;;;17.40;75.40;;;;;;4993905;28;20201;-90
2023/08/31 10:41:56;;;;;;;16.02;14.88;;;16.90;74.20;;;;;;4992207;28;20182;-91
2023/08/31 10:44:27;;;;;;;16.75;15.45;;;16.70;73.60;;;;;;4992726;28;20174;-90
2023/08/31 10:46:53;;;;;;;15.98;14.88;;;16.40;75.10;;;;;;4994245;28;20181;-90
2023/08/31 10:49:23;;;;;;;17.17;15.88;;;16.80;73.80;;;;;;4992530;28;20213;-90
2023/08/31 10:51:54;;;;;;;15.77;14.57;;;17.00;73.40;;;;;;4993221;28;20177;-91
2023/08/31 10:54:31;;;;;;;16.23;15.02;;;17.40;75.00;;;;;;4993080;28;20261;-91
2023/08/31 10:57:10;;;;;;;17.02;15.93;;;17.20;72.60;;;;;;4992937;28;20236;-91
2023/08/31 10:59:51;;;;;;;17.13;15.90;;;17.10;71.00;;;;;;4993171;28;20337;-90
2023/08/31 11:02:37;;;;;;;17.50;16.10;;;17.50;72.20;;;;;;4994361;28;20171;-90
2023/08/31 11:05:11;;;;;;;17.55;16.15;;;17.90;71.00;;;;;;4993138;28;20260;-91
2023/08/31 11:07:38;;;;;;;16.85;15.45;;;17.90;70.40;;;;;;4994234;28;20158;-91
2023/08/31 11:10:19;;;;;;;18.63;17.00;;;17.80;71.80;;;;;;4992714;28;20198;-90
2023/08/31 11:12:50;;;;;;;18.00;16.65;;;17.70;70.30;;;;;;4992748;28;20186;-91
2023/08/31 11:15:18;;;;;;;17.40;16.20;;;18.00;70.20;;;;;;4992872;28;20245;-90
2023/08/31 11:17:44;;;;;;;18.05;16.63;;;17.90;69.00;;;;;;4992407;28;20196;-91
2023/08/31 11:20:18;;;;;;;17.70;16.40;;;17.60;70.90;;;;;;4992498;28;20799;-90
2023/08/31 11:22:46;;;;;;;18.27;16.98;;;17.70;72.30;;;;;;4994085;28;20166;-91
2023/08/31 11:25:13;;;;;;;18.10;16.90;;;18.10;69.50;;;;;;4993290;28;20205;-91
2023/08/31 11:27:39;;;;;;;17.77;16.35;;;18.00;69.50;;;;;;4993141;28;20650;-91
2023/08/31 11:30:14;;;;;;;18.55;16.98;;;18.40;70.00;;;;;;4993449;28;20198;-90
2023/08/31 11:32:51;;;;;;;17.30;16.00;;;18.80;70.50;;;;;;4992264;28;20185;-90
2023/08/31 11:35:18;;;;;;;17.13;16.02;;;18.50;67.30;;;;;;4993265;28;20180;-91
2023/08/31 11:37:45;;;;;;;17.25;16.10;;;18.50;69.20;;;;;;4996057;28;20177;-91
2023/08/31 11:40:14;;;;;;;18.55;17.08;;;18.80;70.00;;;;;;4996095;28;20212;-91
2023/08/31 11:42:40;;;;;;;18.58;17.25;;;18.80;68.30;;;;;;4995981;28;20185;-91
2023/08/31 11:45:06;;;;;;;18.65;17.27;;;18.70;67.40;;;;;;4996451;28;20531;-91
2023/08/31 11:47:33;;;;;;;19.17;17.25;;;18.70;67.30;;;;;;4995998;28;20178;-91
2023/08/31 11:50:01;;;;;;;16.42;15.23;;;18.20;66.60;;;;;;4996043;28;20757;-91
2023/08/31 11:52:27;;;;;;;17.25;16.00;;;17.70;70.30;;;;;;4996280;28;20209;-91
2023/08/31 11:54:53;;;;;;;17.75;16.20;;;17.50;69.30;;;;;;4995835;28;20547;-90
2023/08/31 11:57:24;;;;;;;18.05;16.85;;;16.70;63.60;;;;;;4995690;28;20549;-91
2023/08/31 11:59:50;;;;;;;17.77;16.67;;;15.80;66.20;;;;;;4995632;28;20202;-91
2023/08/31 12:02:19;;;;;;;17.70;16.60;;;14.80;68.60;;;;;;4996044;28;20293;-91
2023/08/31 12:04:45;;;;;;;17.05;16.05;;;15.10;70.10;;;;;;4996038;28;20234;-91
2023/08/31 12:07:15;;;;;;;16.55;15.55;;;15.00;70.50;;;;;;4997157;28;20174;-90
2023/08/31 12:09:41;;;;;;;15.57;14.68;;;14.30;72.00;;;;;;4998358;28;20198;-93
2023/08/31 12:12:07;;;;;;;15.38;14.48;;;14.30;73.10;;;;;;5008196;28;20190;-93
2023/08/31 12:14:36;;;;;;;15.27;14.38;;;14.10;73.40;;;;;;5004738;28;20178;-94
2023/08/31 12:17:07;;;;;;;14.57;13.70;;;14.20;74.60;;;;;;5004069;28;20189;-93
2023/08/31 12:19:35;;;;;;;13.32;12.52;;;14.10;76.30;;;;;;4998554;28;20234;-92
2023/08/31 12:22:01;;;;;;;13.10;12.20;;;14.00;77.00;;;;;;5001219;28;20198;-93
2023/08/31 12:24:26;;;;;;;12.57;11.87;;;13.70;77.70;;;;;;4998442;28;20650;-90
2023/08/31 12:26:55;;;;;;;13.32;12.43;;;13.80;78.70;;;;;;4995120;28;20166;-90
2023/08/31 12:29:21;;;;;;;12.27;11.47;;;13.90;78.20;;;;;;4995137;28;20204;-91
2023/08/31 12:31:47;;;;;;;13.65;12.32;;;14.10;78.40;;;;;;4995003;28;20178;-90